createdAt,value
2022-09-01T00:00:01.365Z,14.82
2022-09-01T00:02:29.503Z,15.01
2022-09-01T00:04:58.848Z,14.78
2022-09-01T00:07:30.318Z,14.92
2022-09-01T00:09:58.900Z,15.20
2022-09-01T00:12:26.151Z,15.76
2022-09-01T00:14:53.630Z,15.08
2022-09-01T00:17:20.492Z,15.57
2022-09-01T00:19:47.366Z,14.95
2022-09-01T00:22:14.193Z,14.96
2022-09-01T00:24:41.023Z,15.67
2022-09-01T00:27:08.058Z,14.88
2022-09-01T00:29:36.225Z,14.81
2022-09-01T00:32:03.749Z,14.78
2022-09-01T00:34:30.551Z,15.26
2022-09-01T00:36:57.418Z,14.72
2022-09-01T00:39:24.421Z,14.92
2022-09-01T00:41:51.430Z,15.37
2022-09-01T00:44:23.619Z,14.87
2022-09-01T00:46:55.399Z,15.14
2022-09-01T00:49:26.626Z,14.73
2022-09-01T00:51:59.185Z,15.30
2022-09-01T00:54:30.705Z,14.82
2022-09-01T00:56:58.279Z,14.87
2022-09-01T00:59:27.524Z,14.60
2022-09-01T01:01:55.523Z,15.86
2022-09-01T01:04:23.177Z,15.01
2022-09-01T01:06:58.890Z,14.58
2022-09-01T01:09:27.921Z,14.93
2022-09-01T01:11:57.758Z,14.65
2022-09-01T01:14:24.565Z,15.56
2022-09-01T01:16:52.428Z,14.88
2022-09-01T01:19:51.037Z,15.09
2022-09-01T01:22:43.677Z,15.31
2022-09-01T01:25:12.902Z,14.93
2022-09-01T01:27:43.081Z,14.88
2022-09-01T01:30:12.793Z,15.55
2022-09-01T01:32:43.834Z,14.92
2022-09-01T01:35:15.018Z,14.77
2022-09-01T01:37:48.917Z,14.74
2022-09-01T01:40:18.470Z,15.15
2022-09-01T01:42:48.206Z,15.13
2022-09-01T01:45:17.467Z,14.94
2022-09-01T01:47:53.593Z,15.07
2022-09-01T01:50:27.349Z,15.21
2022-09-01T01:52:58.232Z,15.18
2022-09-01T01:55:29.135Z,14.94
2022-09-01T01:57:56.744Z,14.73
2022-09-01T02:00:30.542Z,14.90
2022-09-01T02:02:58.604Z,14.68
2022-09-01T02:05:32.234Z,14.72
2022-09-01T02:08:04.757Z,14.71
2022-09-01T02:10:39.343Z,15.33
2022-09-01T02:13:07.794Z,14.84
2022-09-01T02:15:43.852Z,14.82
2022-09-01T02:18:14.378Z,15.15
2022-09-01T02:20:42.074Z,14.82
2022-09-01T02:23:11.786Z,15.69
2022-09-01T02:26:05.085Z,15.11
2022-09-01T02:28:33.067Z,14.71
2022-09-01T02:31:00.046Z,14.81
2022-09-01T02:33:28.523Z,14.90
2022-09-01T02:35:58.358Z,14.86
2022-09-01T02:38:29.925Z,15.02
2022-09-01T02:40:58.623Z,14.78
2022-09-01T02:43:28.293Z,14.55
2022-09-01T02:45:59.894Z,15.18
2022-09-01T02:48:35.958Z,14.68
2022-09-01T02:51:12.513Z,14.80
2022-09-01T02:53:39.919Z,15.52
2022-09-01T02:56:15.445Z,14.66
2022-09-01T02:58:46.587Z,15.66
2022-09-01T03:01:23.183Z,15.64
2022-09-01T03:03:52.454Z,15.10
2022-09-01T03:06:21.147Z,15.06
2022-09-01T03:08:49.059Z,14.85
2022-09-01T03:11:16.169Z,14.65
2022-09-01T03:13:43.744Z,14.89
2022-09-01T03:16:11.553Z,14.57
2022-09-01T03:18:39.775Z,15.16
2022-09-01T03:21:08.586Z,14.98
2022-09-01T03:23:36.950Z,14.59
2022-09-01T03:26:04.434Z,14.61
2022-09-01T03:28:32.056Z,15.80
2022-09-01T03:30:59.432Z,15.63
2022-09-01T03:33:28.528Z,16.48
2022-09-01T03:35:56.910Z,15.23
2022-09-01T03:38:25.129Z,15.08
2022-09-01T03:41:02.159Z,15.02
2022-09-01T03:43:36.056Z,14.78
2022-09-01T03:46:03.722Z,17.16
2022-09-01T03:48:32.158Z,15.16
2022-09-01T03:51:03.248Z,15.13
2022-09-01T03:53:34.664Z,14.41
2022-09-01T03:56:04.237Z,14.79
2022-09-01T03:58:31.482Z,14.86
2022-09-01T04:01:03.008Z,14.58
2022-09-01T04:03:34.639Z,14.42
2022-09-01T04:06:03.436Z,14.41
2022-09-01T04:08:32.596Z,14.75
2022-09-01T04:11:03.975Z,14.16
2022-09-01T04:13:39.796Z,14.37
2022-09-01T04:16:30.929Z,14.96
2022-09-01T04:18:58.006Z,14.64
2022-09-01T04:21:24.830Z,14.33
2022-09-01T04:23:51.629Z,14.39
2022-09-01T04:26:20.939Z,14.32
2022-09-01T04:28:50.921Z,14.91
2022-09-01T04:31:20.610Z,14.46
2022-09-01T04:33:50.214Z,14.48
2022-09-01T04:36:21.218Z,14.38
2022-09-01T04:38:56.248Z,14.82
2022-09-01T04:41:25.941Z,14.72
2022-09-01T04:43:57.115Z,14.86
2022-09-01T04:46:29.573Z,14.78
2022-09-01T04:48:57.746Z,15.33
2022-09-01T04:51:28.249Z,14.37
2022-09-01T04:53:58.708Z,14.81
2022-09-01T04:56:26.855Z,14.66
2022-09-01T04:58:55.944Z,15.30
2022-09-01T05:01:27.783Z,14.90
2022-09-01T05:04:01.544Z,14.82
2022-09-01T05:06:34.004Z,15.08
2022-09-01T05:09:00.848Z,14.84
2022-09-01T05:11:27.889Z,15.18
2022-09-01T05:13:57.920Z,15.26
2022-09-01T05:16:25.922Z,15.03
2022-09-01T05:18:55.856Z,15.03
2022-09-01T05:21:28.296Z,15.01
2022-09-01T05:23:58.360Z,14.90
2022-09-01T05:26:27.976Z,15.55
2022-09-01T05:28:58.945Z,15.12
2022-09-01T05:31:28.307Z,14.83
2022-09-01T05:33:55.737Z,15.18
2022-09-01T05:36:23.980Z,14.83
2022-09-01T05:38:52.475Z,15.03
2022-09-01T05:41:21.181Z,15.07
2022-09-01T05:43:50.565Z,15.14
2022-09-01T05:46:20.818Z,15.92
2022-09-01T05:48:49.661Z,15.81
2022-09-01T05:51:42.829Z,15.90
2022-09-01T05:54:08.224Z,15.13
2022-09-01T05:56:43.489Z,15.03
2022-09-01T05:59:28.412Z,15.63
2022-09-01T06:01:56.386Z,16.15
2022-09-01T06:04:27.968Z,16.20
2022-09-01T06:07:06.108Z,16.26
2022-09-01T06:09:38.803Z,16.31
2022-09-01T06:12:06.903Z,16.00
2022-09-01T06:14:35.083Z,15.39
2022-09-01T06:17:03.336Z,16.22
2022-09-01T06:19:34.827Z,16.26
2022-09-01T06:22:04.726Z,16.01
2022-09-01T06:24:32.013Z,16.16
2022-09-01T06:26:59.808Z,16.08
2022-09-01T06:29:26.631Z,16.04
2022-09-01T06:31:53.474Z,15.28
2022-09-01T06:34:20.925Z,16.13
2022-09-01T06:36:49.680Z,16.18
2022-09-01T06:39:22.581Z,16.21
2022-09-01T06:41:53.345Z,15.79
2022-09-01T06:44:24.724Z,15.67
2022-09-01T06:46:52.572Z,16.10
2022-09-01T06:49:21.739Z,16.21
2022-09-01T06:51:49.815Z,16.20
2022-09-01T06:54:19.956Z,16.29
2022-09-01T06:56:51.266Z,17.03
2022-09-01T06:59:20.286Z,16.97
2022-09-01T07:01:49.354Z,17.18
2022-09-01T07:04:20.361Z,17.17
2022-09-01T07:07:00.373Z,17.32
2022-09-01T07:09:38.848Z,17.35
2022-09-01T07:12:31.187Z,16.67
2022-09-01T07:17:50.110Z,17.58
2022-09-01T07:20:25.411Z,17.47
2022-09-01T07:23:10.177Z,17.39
2022-09-01T07:28:39.831Z,17.59
2022-09-01T07:39:48.710Z,18.37
2022-09-01T07:42:56.719Z,17.47
2022-09-01T07:45:26.167Z,18.33
2022-09-01T07:47:54.269Z,18.52
2022-09-01T07:50:38.518Z,18.76
2022-09-01T07:53:09.485Z,18.87
2022-09-01T07:55:43.968Z,18.59
2022-09-01T07:58:12.066Z,19.05
2022-09-01T08:00:46.680Z,18.98
2022-09-01T08:03:14.648Z,18.86
2022-09-01T08:05:41.827Z,18.86
2022-09-01T08:08:28.382Z,18.58
2022-09-01T08:11:04.289Z,18.71
2022-09-01T08:13:38.929Z,19.26
2022-09-01T08:16:15.942Z,19.27
2022-09-01T08:18:48.910Z,19.28
2022-09-01T08:21:18.465Z,19.15
2022-09-01T08:23:45.394Z,18.87
2022-09-01T08:26:16.188Z,19.02
2022-09-01T08:28:47.210Z,18.88
2022-09-01T08:31:23.038Z,19.08
2022-09-01T08:33:50.909Z,19.17
2022-09-01T08:36:23.018Z,19.01
2022-09-01T08:38:51.426Z,19.10
2022-09-01T08:42:31.923Z,19.22
2022-09-01T08:45:21.921Z,19.17
2022-09-01T08:48:22.472Z,19.21
2022-09-01T08:50:39.099Z,19.06
2022-09-01T08:53:20.541Z,19.31
2022-09-01T08:55:52.297Z,19.14
2022-09-01T08:58:19.322Z,18.53
2022-09-01T09:00:55.070Z,19.17
2022-09-01T09:03:40.524Z,19.24
2022-09-01T09:06:10.959Z,19.34
2022-09-01T09:08:43.486Z,19.58
2022-09-01T09:11:45.894Z,19.63
2022-09-01T09:14:22.022Z,19.65
2022-09-01T09:16:54.406Z,19.04
2022-09-01T09:19:34.848Z,18.87
2022-09-01T09:22:07.426Z,18.88
2022-09-01T09:24:52.844Z,18.95
2022-09-01T09:27:33.392Z,18.90
2022-09-01T09:30:07.347Z,19.22
2022-09-01T09:35:50.939Z,19.51
2022-09-01T09:38:24.370Z,19.68
2022-09-01T09:41:17.334Z,19.61
2022-09-01T09:43:59.227Z,19.63
2022-09-01T09:46:34.875Z,19.86
2022-09-01T09:49:13.370Z,19.80
2022-09-01T09:51:44.132Z,19.96
2022-09-01T09:54:13.556Z,20.11
2022-09-01T09:56:47.221Z,20.19
2022-09-01T09:59:53.662Z,20.14
2022-09-01T10:02:41.087Z,20.18
2022-09-01T10:05:35.720Z,20.12
2022-09-01T10:08:04.533Z,19.86
2022-09-01T10:10:41.458Z,19.87
2022-09-01T10:13:13.876Z,19.89
2022-09-01T10:15:49.198Z,19.86
2022-09-01T10:18:28.826Z,19.58
2022-09-01T10:21:04.461Z,19.93
2022-09-01T10:23:34.822Z,20.26
2022-09-01T10:26:15.701Z,20.14
2022-09-01T10:29:02.913Z,20.12
2022-09-01T10:31:32.809Z,19.91
2022-09-01T10:34:02.787Z,20.33
2022-09-01T10:36:34.725Z,20.31
2022-09-01T10:39:06.159Z,20.58
2022-09-01T10:42:07.373Z,20.76
2022-09-01T10:44:54.553Z,20.35
2022-09-01T10:47:33.561Z,20.50
2022-09-01T10:50:09.962Z,20.94
2022-09-01T10:52:43.329Z,21.32
2022-09-01T10:55:25.415Z,21.35
2022-09-01T10:58:09.563Z,21.18
2022-09-01T11:03:56.678Z,21.56
2022-09-01T11:09:43.601Z,21.92
2022-09-01T11:12:31.750Z,22.10
2022-09-01T11:15:01.710Z,22.17
2022-09-01T11:17:41.218Z,22.13
2022-09-01T11:20:34.288Z,22.09
2022-09-01T11:23:06.284Z,21.76
2022-09-01T11:25:39.468Z,21.17
2022-09-01T11:28:15.600Z,21.24
2022-09-01T11:30:53.135Z,21.19
2022-09-01T11:33:53.352Z,21.32
2022-09-01T11:36:31.308Z,21.36
2022-09-01T11:39:03.919Z,21.60
2022-09-01T11:41:43.005Z,21.52
2022-09-01T11:44:15.302Z,21.48
2022-09-01T11:46:43.772Z,21.58
2022-09-01T11:49:28.352Z,21.17
2022-09-01T11:51:56.640Z,21.03
2022-09-01T11:54:24.778Z,21.10
2022-09-01T11:56:52.009Z,21.20
2022-09-01T11:59:33.885Z,21.49
2022-09-01T12:02:01.419Z,21.57
2022-09-01T12:04:35.581Z,21.54
2022-09-01T12:07:10.930Z,21.59
2022-09-01T12:09:42.769Z,21.91
2022-09-01T12:12:30.210Z,21.75
2022-09-01T12:15:10.722Z,21.97
2022-09-01T12:17:40.558Z,22.01
2022-09-01T12:20:30.033Z,22.32
2022-09-01T12:22:59.176Z,22.38
2022-09-01T12:25:31.923Z,21.99
2022-09-01T12:28:04.540Z,21.82
2022-09-01T12:30:35.494Z,21.78
2022-09-01T12:33:23.620Z,22.05
2022-09-01T12:35:53.976Z,22.28
2022-09-01T12:38:24.655Z,22.07
2022-09-01T12:40:56.823Z,22.20
2022-09-01T12:43:32.813Z,22.36
2022-09-01T12:46:02.873Z,22.47
2022-09-01T12:48:35.146Z,22.53
2022-09-01T12:51:09.201Z,22.33
2022-09-01T12:53:37.110Z,21.88
2022-09-01T12:56:16.870Z,21.43
2022-09-01T12:58:48.446Z,21.30
2022-09-01T13:01:27.936Z,21.31
2022-09-01T13:04:31.104Z,21.59
2022-09-01T13:07:05.678Z,22.00
2022-09-01T13:09:32.603Z,21.79
2022-09-01T13:12:32.015Z,21.78
2022-09-01T13:14:58.867Z,21.38
2022-09-01T13:17:26.301Z,21.30
2022-09-01T13:19:53.187Z,21.35
2022-09-01T13:22:20.028Z,21.44
2022-09-01T13:24:46.873Z,21.75
2022-09-01T13:27:22.694Z,22.03
2022-09-01T13:29:51.004Z,21.98
2022-09-01T13:32:22.128Z,21.74
2022-09-01T13:34:51.812Z,21.70
2022-09-01T13:37:23.453Z,21.65
2022-09-01T13:39:51.188Z,21.49
2022-09-01T13:42:18.660Z,21.52
2022-09-01T13:44:49.564Z,21.61
2022-09-01T13:47:32.211Z,21.83
2022-09-01T13:50:10.294Z,21.69
2022-09-01T13:52:40.380Z,21.75
2022-09-01T13:55:10.223Z,21.96
2022-09-01T13:57:37.177Z,22.05
2022-09-01T14:00:08.390Z,22.19
2022-09-01T14:02:35.434Z,22.34
2022-09-01T14:05:02.377Z,22.51
2022-09-01T14:07:30.151Z,22.20
2022-09-01T14:09:57.114Z,22.18
2022-09-01T14:12:24.381Z,22.11
2022-09-01T14:17:38.912Z,21.83
2022-09-01T14:20:08.988Z,21.80
2022-09-01T14:22:38.548Z,21.97
2022-09-01T14:25:06.945Z,22.13
2022-09-01T14:27:33.914Z,22.09
2022-09-01T14:30:01.087Z,21.94
2022-09-01T14:32:28.205Z,21.89
2022-09-01T14:34:56.418Z,22.01
2022-09-01T14:37:24.159Z,22.19
2022-09-01T14:39:52.755Z,22.29
2022-09-01T14:42:19.952Z,22.48
2022-09-01T14:44:48.114Z,22.38
2022-09-01T14:47:18.248Z,22.07
2022-09-01T14:49:46.973Z,21.83
2022-09-01T14:52:14.494Z,21.93
2022-09-01T14:54:45.510Z,21.98
2022-09-01T14:57:37.847Z,21.76
2022-09-01T15:00:01.312Z,21.57
2022-09-01T15:02:29.236Z,21.56
2022-09-01T15:04:56.928Z,21.48
2022-09-01T15:07:23.875Z,21.53
2022-09-01T15:09:50.752Z,21.50
2022-09-01T15:12:17.679Z,21.35
2022-09-01T15:14:44.650Z,21.31
2022-09-01T15:17:11.637Z,21.23
2022-09-01T15:19:38.918Z,21.19
2022-09-01T15:22:06.887Z,21.10
2022-09-01T15:24:33.849Z,21.10
2022-09-01T15:27:00.741Z,21.23
2022-09-01T15:29:27.549Z,21.28
2022-09-01T15:31:54.369Z,21.38
2022-09-01T15:34:21.209Z,21.34
2022-09-01T15:36:48.041Z,21.48
2022-09-01T15:39:14.905Z,21.52
2022-09-01T15:41:44.722Z,21.36
2022-09-01T15:44:11.598Z,21.34
2022-09-01T15:46:39.260Z,21.22
2022-09-01T15:49:08.474Z,21.32
2022-09-01T15:51:39.290Z,21.33
2022-09-01T15:54:18.209Z,21.13
2022-09-01T15:56:47.268Z,21.09
2022-09-01T15:59:14.963Z,21.11
2022-09-01T16:01:44.869Z,21.07
2022-09-01T16:04:19.082Z,21.09
2022-09-01T16:06:49.571Z,21.00
2022-09-01T16:09:21.383Z,21.01
2022-09-01T16:11:48.585Z,21.04
2022-09-01T16:14:16.124Z,20.93
2022-09-01T16:17:04.281Z,21.00
2022-09-01T16:19:49.379Z,20.87
2022-09-01T16:22:34.344Z,20.81
2022-09-01T16:25:13.345Z,20.88
2022-09-01T16:27:42.846Z,20.90
2022-09-01T16:30:16.816Z,20.79
2022-09-01T16:32:48.397Z,20.86
2022-09-01T16:35:19.723Z,20.85
2022-09-01T16:38:19.434Z,20.83
2022-09-01T16:41:07.883Z,20.70
2022-09-01T16:44:10.295Z,20.64
2022-09-01T16:46:54.390Z,20.70
2022-09-01T16:49:28.054Z,20.40
2022-09-01T16:52:09.664Z,20.47
2022-09-01T16:55:00.869Z,20.55
2022-09-01T16:57:59.462Z,20.51
2022-09-01T17:00:38.219Z,20.40
2022-09-01T17:03:19.153Z,20.37
2022-09-01T17:05:55.611Z,20.30
2022-09-01T17:08:31.246Z,20.28
2022-09-01T17:11:18.680Z,20.26
2022-09-01T17:13:51.361Z,20.14
2022-09-01T17:16:38.715Z,20.18
2022-09-01T17:19:08.783Z,20.12
2022-09-01T17:21:45.163Z,20.17
2022-09-01T17:24:34.843Z,20.00
2022-09-01T17:27:07.855Z,19.86
2022-09-01T17:29:51.932Z,19.87
2022-09-01T17:32:30.907Z,19.72
2022-09-01T17:35:07.806Z,19.67
2022-09-01T17:38:05.848Z,19.75
2022-09-01T17:40:53.014Z,19.47
2022-09-01T17:43:33.774Z,19.42
2022-09-01T17:46:32.850Z,19.31
2022-09-01T17:49:23.096Z,19.20
2022-09-01T17:51:58.063Z,19.18
2022-09-01T17:54:40.727Z,19.27
2022-09-01T17:57:59.027Z,19.16
2022-09-01T18:00:30.051Z,19.04
2022-09-01T18:03:02.700Z,18.98
2022-09-01T18:05:40.200Z,18.89
2022-09-01T18:08:42.015Z,18.85
2022-09-01T18:11:15.903Z,18.80
2022-09-01T18:13:56.230Z,18.78
2022-09-01T18:16:30.336Z,18.72
2022-09-01T18:19:09.118Z,18.68
2022-09-01T18:21:40.782Z,18.65
2022-09-01T18:24:28.989Z,18.55
2022-09-01T18:26:55.804Z,18.50
2022-09-01T18:29:25.174Z,18.52
2022-09-01T18:32:10.439Z,18.56
2022-09-01T18:34:49.502Z,18.56
2022-09-01T18:37:29.901Z,18.53
2022-09-01T18:40:27.318Z,18.57
2022-09-01T18:42:57.006Z,18.56
2022-09-01T18:45:48.895Z,18.52
2022-09-01T18:48:49.810Z,18.48
2022-09-01T18:51:33.345Z,18.53
2022-09-01T18:54:09.351Z,18.52
2022-09-01T18:56:55.189Z,18.45
2022-09-01T18:59:38.784Z,18.56
2022-09-01T19:02:28.800Z,18.49
2022-09-01T19:05:04.644Z,18.47
2022-09-01T19:07:49.989Z,18.46
2022-09-01T19:10:26.003Z,18.53
2022-09-01T19:13:12.297Z,18.41
2022-09-01T19:15:57.648Z,18.52
2022-09-01T19:18:30.479Z,18.25
2022-09-01T19:21:06.216Z,18.34
2022-09-01T19:24:02.450Z,18.23
2022-09-01T19:26:37.483Z,18.15
2022-09-01T19:29:13.170Z,18.15
2022-09-01T19:31:45.502Z,17.94
2022-09-01T19:34:15.506Z,17.97
2022-09-01T19:36:50.099Z,17.91
2022-09-01T19:39:22.179Z,17.85
2022-09-01T19:41:54.820Z,17.85
2022-09-01T19:44:44.990Z,17.75
2022-09-01T19:47:22.726Z,17.76
2022-09-01T19:50:08.225Z,17.72
2022-09-01T19:52:51.137Z,17.75
2022-09-01T19:55:31.455Z,17.65
2022-09-01T19:58:16.562Z,17.67
2022-09-01T20:00:53.477Z,17.64
2022-09-01T20:03:34.156Z,17.61
2022-09-01T20:06:02.934Z,17.58
2022-09-01T20:08:42.899Z,17.59
2022-09-01T20:11:47.814Z,17.60
2022-09-01T20:14:22.265Z,17.63
2022-09-01T20:16:51.143Z,17.53
2022-09-01T20:19:47.528Z,17.57
2022-09-01T20:22:41.267Z,17.55
2022-09-01T20:25:14.845Z,17.41
2022-09-01T20:28:07.076Z,17.59
2022-09-01T20:30:40.029Z,17.49
2022-09-01T20:33:37.665Z,17.53
2022-09-01T20:36:10.831Z,17.52
2022-09-01T20:39:11.012Z,17.63
2022-09-01T20:41:49.319Z,17.63
2022-09-01T20:44:32.359Z,17.67
2022-09-01T20:46:59.249Z,17.68
2022-09-01T20:49:26.082Z,17.54
2022-09-01T20:52:00.035Z,17.47
2022-09-01T20:54:38.051Z,17.55
2022-09-01T20:57:04.868Z,17.45
2022-09-01T20:59:54.718Z,17.41
2022-09-01T21:02:24.685Z,17.37
2022-09-01T21:05:01.025Z,17.39
2022-09-01T21:07:31.368Z,17.35
2022-09-01T21:10:17.116Z,17.32
2022-09-01T21:13:26.599Z,17.27
2022-09-01T21:16:11.043Z,17.22
2022-09-01T21:18:52.699Z,17.26
2022-09-01T21:21:29.076Z,17.15
2022-09-01T21:23:55.880Z,17.08
2022-09-01T21:26:23.049Z,17.11
2022-09-01T21:28:55.399Z,17.10
2022-09-01T21:31:24.359Z,17.04
2022-09-01T21:33:51.916Z,16.98
2022-09-01T21:36:18.962Z,16.94
2022-09-01T21:38:45.802Z,16.95
2022-09-01T21:41:13.499Z,16.93
2022-09-01T21:43:43.953Z,16.83
2022-09-01T21:46:13.751Z,16.77
2022-09-01T21:48:40.777Z,16.72
2022-09-01T21:51:07.709Z,16.79
2022-09-01T21:53:34.575Z,16.75
2022-09-01T21:56:01.473Z,16.76
2022-09-01T21:58:28.275Z,16.57
2022-09-01T22:00:55.772Z,16.56
2022-09-01T22:03:22.691Z,16.51
2022-09-01T22:05:50.636Z,16.57
2022-09-01T22:08:17.674Z,16.47
2022-09-01T22:10:49.181Z,16.47
2022-09-01T22:13:17.629Z,16.47
2022-09-01T22:15:47.908Z,16.43
2022-09-01T22:18:15.431Z,16.33
2022-09-01T22:20:42.661Z,16.41
2022-09-01T22:23:10.264Z,16.36
2022-09-01T22:25:42.406Z,16.38
2022-09-01T22:28:09.545Z,16.28
2022-09-01T22:30:36.714Z,16.24
2022-09-01T22:33:07.638Z,16.22
2022-09-01T22:35:34.454Z,16.14
2022-09-01T22:38:01.231Z,16.12
2022-09-01T22:40:28.122Z,16.15
2022-09-01T22:42:54.993Z,16.13
2022-09-01T22:45:21.737Z,16.14
2022-09-01T22:47:49.037Z,16.14
2022-09-01T22:50:16.024Z,16.13
2022-09-01T22:52:43.802Z,16.06
2022-09-01T22:55:10.903Z,16.08
2022-09-01T22:57:37.751Z,16.14
2022-09-01T23:00:09.123Z,16.00
2022-09-01T23:02:36.361Z,16.05
2022-09-01T23:05:06.030Z,15.99
2022-09-01T23:07:35.820Z,16.07
2022-09-01T23:10:08.552Z,16.07
2022-09-01T23:12:35.334Z,16.06
2022-09-01T23:15:02.153Z,16.10
2022-09-01T23:17:28.892Z,16.14
2022-09-01T23:19:55.784Z,16.10
2022-09-01T23:22:22.570Z,16.03
2022-09-01T23:24:49.449Z,16.07
2022-09-01T23:27:16.267Z,16.08
2022-09-01T23:29:43.058Z,16.08
2022-09-01T23:32:09.959Z,16.02
2022-09-01T23:34:38.806Z,15.90
2022-09-01T23:37:05.599Z,16.09
2022-09-01T23:39:32.368Z,15.84
2022-09-01T23:41:59.571Z,15.90
2022-09-01T23:44:26.435Z,15.80
2022-09-01T23:46:53.249Z,15.84
2022-09-01T23:49:20.061Z,15.71
2022-09-01T23:51:47.573Z,15.77
2022-09-01T23:54:15.407Z,15.71
2022-09-01T23:56:42.430Z,15.72
2022-09-01T23:59:09.307Z,15.71
